sensor_id;sensor_type;location;lat;lon;timestamp;pressure;altitude;pressure_sealevel;temperature;humidity
53506;BME280;39388;50.936;6.848;2023-04-07T00:00:00;100795.19;;;9.41;85.91
53506;BME280;39388;50.936;6.848;2023-04-07T00:02:33;100794.34;;;9.42;86.19
53506;BME280;39388;50.936;6.848;2023-04-07T00:05:04;100798.63;;;9.43;86.12
53506;BME280;39388;50.936;6.848;2023-04-07T00:07:34;100793.47;;;9.41;86.24
53506;BME280;39388;50.936;6.848;2023-04-07T00:10:06;100786.59;;;9.39;86.24
53506;BME280;39388;50.936;6.848;2023-04-07T00:12:36;100793.47;;;9.44;86.07
53506;BME280;39388;50.936;6.848;2023-04-07T00:15:07;100801.19;;;9.44;86.24
53506;BME280;39388;50.936;6.848;2023-04-07T00:17:38;100809.78;;;9.46;86.19
53506;BME280;39388;50.936;6.848;2023-04-07T00:20:08;100805.50;;;9.45;86.22
53506;BME280;39388;50.936;6.848;2023-04-07T00:22:38;100796.03;;;9.41;86.57
53506;BME280;39388;50.936;6.848;2023-04-07T00:25:09;100807.22;;;9.51;86.28
53506;BME280;39388;50.936;6.848;2023-04-07T00:27:40;100810.66;;;9.52;86.27
53506;BME280;39388;50.936;6.848;2023-04-07T00:30:10;100799.50;;;9.53;86.47
53506;BME280;39388;50.936;6.848;2023-04-07T00:32:40;100796.91;;;9.54;86.66
53506;BME280;39388;50.936;6.848;2023-04-07T00:35:11;100784.91;;;9.48;86.22
53506;BME280;39388;50.936;6.848;2023-04-07T00:37:41;100783.19;;;9.46;86.54
53506;BME280;39388;50.936;6.848;2023-04-07T00:40:12;100794.34;;;9.57;86.41
53506;BME280;39388;50.936;6.848;2023-04-07T00:42:42;100786.63;;;9.56;86.43
53506;BME280;39388;50.936;6.848;2023-04-07T00:45:12;100796.06;;;9.57;86.90
53506;BME280;39388;50.936;6.848;2023-04-07T00:47:43;100777.19;;;9.52;86.72
53506;BME280;39388;50.936;6.848;2023-04-07T00:50:13;100784.03;;;9.56;86.75
53506;BME280;39388;50.936;6.848;2023-04-07T00:52:44;100788.34;;;9.60;86.83
53506;BME280;39388;50.936;6.848;2023-04-07T00:55:15;100791.78;;;9.57;86.86
53506;BME280;39388;50.936;6.848;2023-04-07T00:57:45;100789.22;;;9.57;87.15
53506;BME280;39388;50.936;6.848;2023-04-07T01:00:16;100780.63;;;9.54;87.01
53506;BME280;39388;50.936;6.848;2023-04-07T01:03:08;100780.59;;;9.57;87.30
53506;BME280;39388;50.936;6.848;2023-04-07T01:05:54;100784.06;;;9.57;86.98
53506;BME280;39388;50.936;6.848;2023-04-07T01:08:48;100772.88;;;9.57;87.14
53506;BME280;39388;50.936;6.848;2023-04-07T01:11:24;100775.47;;;9.57;87.20
53506;BME280;39388;50.936;6.848;2023-04-07T01:13:56;100778.06;;;9.58;87.13
53506;BME280;39388;50.936;6.848;2023-04-07T01:16:35;100768.63;;;9.53;87.54
53506;BME280;39388;50.936;6.848;2023-04-07T01:19:15;100784.06;;;9.59;87.54
53506;BME280;39388;50.936;6.848;2023-04-07T01:21:50;100772.03;;;9.58;87.17
53506;BME280;39388;50.936;6.848;2023-04-07T01:24:33;100773.78;;;9.60;87.51
53506;BME280;39388;50.936;6.848;2023-04-07T01:27:35;100769.47;;;9.61;87.51
53506;BME280;39388;50.936;6.848;2023-04-07T01:30:11;100772.03;;;9.61;87.60
53506;BME280;39388;50.936;6.848;2023-04-07T01:32:44;100778.91;;;9.60;87.67
53506;BME280;39388;50.936;6.848;2023-04-07T01:35:17;100767.75;;;9.63;87.74
53506;BME280;39388;50.936;6.848;2023-04-07T01:37:48;100774.63;;;9.61;87.63
53506;BME280;39388;50.936;6.848;2023-04-07T01:40:20;100777.22;;;9.62;87.89
53506;BME280;39388;50.936;6.848;2023-04-07T01:42:51;100773.75;;;9.62;87.86
53506;BME280;39388;50.936;6.848;2023-04-07T01:45:23;100779.78;;;9.67;88.45
53506;BME280;39388;50.936;6.848;2023-04-07T01:47:54;100781.47;;;9.66;88.45
53506;BME280;39388;50.936;6.848;2023-04-07T01:50:26;100774.63;;;9.67;88.66
53506;BME280;39388;50.936;6.848;2023-04-07T01:52:57;100771.19;;;9.70;88.40
53506;BME280;39388;50.936;6.848;2023-04-07T01:55:28;100782.34;;;9.73;88.84
53506;BME280;39388;50.936;6.848;2023-04-07T01:58:03;100771.19;;;9.73;88.95
53506;BME280;39388;50.936;6.848;2023-04-07T02:00:34;100773.75;;;9.77;88.85
53506;BME280;39388;50.936;6.848;2023-04-07T02:03:13;100773.75;;;9.77;89.00
53506;BME280;39388;50.936;6.848;2023-04-07T02:05:54;100774.63;;;9.76;88.87
53506;BME280;39388;50.936;6.848;2023-04-07T02:08:27;100769.44;;;9.78;88.20
53506;BME280;39388;50.936;6.848;2023-04-07T02:10:59;100777.19;;;9.81;89.32
53506;BME280;39388;50.936;6.848;2023-04-07T02:13:33;100776.34;;;9.80;89.09
53506;BME280;39388;50.936;6.848;2023-04-07T02:16:05;100761.75;;;9.72;88.77
53506;BME280;39388;50.936;6.848;2023-04-07T02:18:36;100773.75;;;9.84;89.27
53506;BME280;39388;50.936;6.848;2023-04-07T02:21:07;100760.88;;;9.71;89.16
53506;BME280;39388;50.936;6.848;2023-04-07T02:23:38;100769.44;;;9.78;89.46
53506;BME280;39388;50.936;6.848;2023-04-07T02:26:08;100775.47;;;9.80;89.28
53506;BME280;39388;50.936;6.848;2023-04-07T02:28:39;100779.78;;;9.79;89.52
53506;BME280;39388;50.936;6.848;2023-04-07T02:31:09;100777.19;;;9.81;90.05
53506;BME280;39388;50.936;6.848;2023-04-07T02:33:42;100779.75;;;9.84;89.81
53506;BME280;39388;50.936;6.848;2023-04-07T02:36:12;100784.06;;;9.85;89.95
53506;BME280;39388;50.936;6.848;2023-04-07T02:38:43;100784.06;;;9.85;89.78
53506;BME280;39388;50.936;6.848;2023-04-07T02:41:13;100780.63;;;9.81;89.80
53506;BME280;39388;50.936;6.848;2023-04-07T02:43:44;100784.91;;;9.86;89.55
53506;BME280;39388;50.936;6.848;2023-04-07T02:46:14;100788.38;;;9.88;89.72
53506;BME280;39388;50.936;6.848;2023-04-07T02:48:45;100787.47;;;9.86;90.19
53506;BME280;39388;50.936;6.848;2023-04-07T02:51:15;100783.19;;;9.83;89.85
53506;BME280;39388;50.936;6.848;2023-04-07T02:53:46;100778.03;;;9.80;89.63
53506;BME280;39388;50.936;6.848;2023-04-07T02:56:16;100789.19;;;9.79;90.07
53506;BME280;39388;50.936;6.848;2023-04-07T02:58:46;100789.19;;;9.82;90.22
53506;BME280;39388;50.936;6.848;2023-04-07T03:01:17;100784.91;;;9.78;90.28
53506;BME280;39388;50.936;6.848;2023-04-07T03:03:47;100798.63;;;9.85;90.26
53506;BME280;39388;50.936;6.848;2023-04-07T03:06:17;100786.63;;;9.80;90.11
53506;BME280;39388;50.936;6.848;2023-04-07T03:08:48;100795.22;;;9.84;90.34
53506;BME280;39388;50.936;6.848;2023-04-07T03:11:18;100802.06;;;9.85;90.12
53506;BME280;39388;50.936;6.848;2023-04-07T03:13:48;100785.75;;;9.80;90.17
53506;BME280;39388;50.936;6.848;2023-04-07T03:16:19;100797.78;;;9.84;90.32
53506;BME280;39388;50.936;6.848;2023-04-07T03:18:49;100786.66;;;9.76;90.07
53506;BME280;39388;50.936;6.848;2023-04-07T03:21:20;100787.47;;;9.78;90.24
53506;BME280;39388;50.936;6.848;2023-04-07T03:23:50;100775.47;;;9.71;90.19
53506;BME280;39388;50.936;6.848;2023-04-07T03:26:20;100793.50;;;9.81;90.47
53506;BME280;39388;50.936;6.848;2023-04-07T03:28:51;100784.06;;;9.74;90.51
53506;BME280;39388;50.936;6.848;2023-04-07T03:31:21;100799.50;;;9.80;90.24
53506;BME280;39388;50.936;6.848;2023-04-07T03:33:52;100782.34;;;9.73;90.67
53506;BME280;39388;50.936;6.848;2023-04-07T03:36:22;100790.91;;;9.78;90.72
53506;BME280;39388;50.936;6.848;2023-04-07T03:38:53;100786.63;;;9.77;90.66
53506;BME280;39388;50.936;6.848;2023-04-07T03:41:24;100791.78;;;9.74;90.86
53506;BME280;39388;50.936;6.848;2023-04-07T03:43:54;100797.78;;;9.78;90.81
53506;BME280;39388;50.936;6.848;2023-04-07T03:46:25;100796.91;;;9.79;90.95
53506;BME280;39388;50.936;6.848;2023-04-07T03:48:56;100796.94;;;9.80;91.01
53506;BME280;39388;50.936;6.848;2023-04-07T03:51:26;100796.06;;;9.78;90.93
53506;BME280;39388;50.936;6.848;2023-04-07T03:53:56;100788.34;;;9.72;90.77
53506;BME280;39388;50.936;6.848;2023-04-07T03:56:27;100800.34;;;9.76;90.91
53506;BME280;39388;50.936;6.848;2023-04-07T03:58:57;100797.78;;;9.73;90.51
53506;BME280;39388;50.936;6.848;2023-04-07T04:01:28;100800.34;;;9.70;90.42
53506;BME280;39388;50.936;6.848;2023-04-07T04:03:58;100803.81;;;9.74;90.51
53506;BME280;39388;50.936;6.848;2023-04-07T04:06:28;100804.66;;;9.73;90.72
53506;BME280;39388;50.936;6.848;2023-04-07T04:09:00;100801.22;;;9.64;90.50
53506;BME280;39388;50.936;6.848;2023-04-07T04:11:30;100801.22;;;9.69;90.56
53506;BME280;39388;50.936;6.848;2023-04-07T04:14:01;100796.94;;;9.65;90.51
53506;BME280;39388;50.936;6.848;2023-04-07T04:16:31;100804.66;;;9.65;90.42
53506;BME280;39388;50.936;6.848;2023-04-07T04:19:01;100812.38;;;9.68;90.25
53506;BME280;39388;50.936;6.848;2023-04-07T04:21:32;100810.66;;;9.69;90.32
53506;BME280;39388;50.936;6.848;2023-04-07T04:24:02;100816.66;;;9.68;90.19
53506;BME280;39388;50.936;6.848;2023-04-07T04:26:33;100812.38;;;9.60;90.43
53506;BME280;39388;50.936;6.848;2023-04-07T04:29:03;100816.69;;;9.61;90.50
53506;BME280;39388;50.936;6.848;2023-04-07T04:31:34;100808.06;;;9.53;90.16
53506;BME280;39388;50.936;6.848;2023-04-07T04:34:04;100823.53;;;9.62;90.25
53506;BME280;39388;50.936;6.848;2023-04-07T04:36:35;100818.38;;;9.64;90.49
53506;BME280;39388;50.936;6.848;2023-04-07T04:39:05;100828.69;;;9.65;90.46
53506;BME280;39388;50.936;6.848;2023-04-07T04:41:36;100835.53;;;9.66;90.60
53506;BME280;39388;50.936;6.848;2023-04-07T04:44:06;100827.81;;;9.62;90.48
53506;BME280;39388;50.936;6.848;2023-04-07T04:46:37;100841.56;;;9.64;89.89
53506;BME280;39388;50.936;6.848;2023-04-07T04:49:07;100839.00;;;9.62;90.57
53506;BME280;39388;50.936;6.848;2023-04-07T04:51:37;100839.00;;;9.62;90.32
53506;BME280;39388;50.936;6.848;2023-04-07T04:54:08;100843.28;;;9.60;90.12
53506;BME280;39388;50.936;6.848;2023-04-07T04:56:38;100840.66;;;9.56;89.77
53506;BME280;39388;50.936;6.848;2023-04-07T04:59:08;100848.41;;;9.59;89.59
53506;BME280;39388;50.936;6.848;2023-04-07T05:01:39;100846.72;;;9.55;89.58
53506;BME280;39388;50.936;6.848;2023-04-07T05:06:50;100857.00;;;9.56;89.49
53506;BME280;39388;50.936;6.848;2023-04-07T05:09:20;100845.84;;;9.48;89.56
53506;BME280;39388;50.936;6.848;2023-04-07T05:11:50;100849.25;;;9.48;89.42
53506;BME280;39388;50.936;6.848;2023-04-07T05:14:21;100861.25;;;9.51;89.54
53506;BME280;39388;50.936;6.848;2023-04-07T05:16:51;100860.41;;;9.52;89.57
53506;BME280;39388;50.936;6.848;2023-04-07T05:19:23;100862.13;;;9.52;89.36
53506;BME280;39388;50.936;6.848;2023-04-07T05:21:53;100857.84;;;9.47;89.28
53506;BME280;39388;50.936;6.848;2023-04-07T05:24:27;100860.41;;;9.55;89.56
53506;BME280;39388;50.936;6.848;2023-04-07T05:26:57;100857.84;;;9.54;89.29
53506;BME280;39388;50.936;6.848;2023-04-07T05:29:28;100857.84;;;9.52;89.43
53506;BME280;39388;50.936;6.848;2023-04-07T05:31:58;100866.44;;;9.53;89.29
53506;BME280;39388;50.936;6.848;2023-04-07T05:34:30;100865.56;;;9.55;89.42
53506;BME280;39388;50.936;6.848;2023-04-07T05:37:01;100864.69;;;9.53;89.44
53506;BME280;39388;50.936;6.848;2023-04-07T05:39:31;100861.28;;;9.54;89.35
53506;BME280;39388;50.936;6.848;2023-04-07T05:42:01;100872.44;;;9.58;89.86
53506;BME280;39388;50.936;6.848;2023-04-07T05:44:33;100870.72;;;9.57;89.10
53506;BME280;39388;50.936;6.848;2023-04-07T05:47:03;100870.72;;;9.58;89.44
53506;BME280;39388;50.936;6.848;2023-04-07T05:49:37;100872.44;;;9.61;89.20
53506;BME280;39388;50.936;6.848;2023-04-07T05:52:14;100870.72;;;9.58;89.20
53506;BME280;39388;50.936;6.848;2023-04-07T05:54:45;100876.72;;;9.56;89.03
53506;BME280;39388;50.936;6.848;2023-04-07T05:57:15;100882.72;;;9.58;89.21
53506;BME280;39388;50.936;6.848;2023-04-07T05:59:46;100879.31;;;9.57;88.86
53506;BME280;39388;50.936;6.848;2023-04-07T06:02:16;100888.75;;;9.61;88.81
53506;BME280;39388;50.936;6.848;2023-04-07T06:04:46;100886.19;;;9.58;88.74
53506;BME280;39388;50.936;6.848;2023-04-07T06:07:17;100882.75;;;9.56;88.60
53506;BME280;39388;50.936;6.848;2023-04-07T06:09:47;100887.88;;;9.58;88.41
53506;BME280;39388;50.936;6.848;2023-04-07T06:12:17;100895.63;;;9.59;88.38
53506;BME280;39388;50.936;6.848;2023-04-07T06:14:54;100900.75;;;9.61;88.54
53506;BME280;39388;50.936;6.848;2023-04-07T06:17:25;100902.50;;;9.60;88.12
53506;BME280;39388;50.936;6.848;2023-04-07T06:19:55;100896.47;;;9.58;88.12
53506;BME280;39388;50.936;6.848;2023-04-07T06:22:26;100905.03;;;9.59;88.53
53506;BME280;39388;50.936;6.848;2023-04-07T06:24:56;100892.16;;;9.51;88.31
53506;BME280;39388;50.936;6.848;2023-04-07T06:27:27;100907.63;;;9.62;88.23
53506;BME280;39388;50.936;6.848;2023-04-07T06:29:57;100904.16;;;9.57;88.21
53506;BME280;39388;50.936;6.848;2023-04-07T06:32:28;100916.22;;;9.64;88.06
53506;BME280;39388;50.936;6.848;2023-04-07T06:34:58;100912.78;;;9.62;88.08
53506;BME280;39388;50.936;6.848;2023-04-07T06:37:28;100917.97;;;9.68;88.32
53506;BME280;39388;50.936;6.848;2023-04-07T06:39:59;100923.94;;;9.69;88.09
53506;BME280;39388;50.936;6.848;2023-04-07T06:42:29;100920.50;;;9.66;87.95
53506;BME280;39388;50.936;6.848;2023-04-07T06:45:00;100925.66;;;9.71;87.75
53506;BME280;39388;50.936;6.848;2023-04-07T06:47:30;100926.53;;;9.67;87.86
53506;BME280;39388;50.936;6.848;2023-04-07T06:50:01;100918.78;;;9.64;87.99
53506;BME280;39388;50.936;6.848;2023-04-07T06:52:31;100925.69;;;9.68;87.81
53506;BME280;39388;50.936;6.848;2023-04-07T06:55:02;100938.56;;;9.76;88.06
53506;BME280;39388;50.936;6.848;2023-04-07T06:57:32;100928.25;;;9.74;87.92
53506;BME280;39388;50.936;6.848;2023-04-07T07:00:03;100931.69;;;9.76;88.13
53506;BME280;39388;50.936;6.848;2023-04-07T07:02:36;100932.56;;;9.78;87.60
53506;BME280;39388;50.936;6.848;2023-04-07T07:05:07;100941.13;;;9.79;88.15
53506;BME280;39388;50.936;6.848;2023-04-07T07:07:37;100939.44;;;9.83;87.77
53506;BME280;39388;50.936;6.848;2023-04-07T07:10:08;100951.47;;;9.91;87.86
53506;BME280;39388;50.936;6.848;2023-04-07T07:12:40;100948.91;;;9.90;87.49
53506;BME280;39388;50.936;6.848;2023-04-07T07:15:10;100939.44;;;9.84;87.78
53506;BME280;39388;50.936;6.848;2023-04-07T07:17:41;100946.34;;;9.90;87.79
53506;BME280;39388;50.936;6.848;2023-04-07T07:20:11;100944.59;;;9.87;87.62
53506;BME280;39388;50.936;6.848;2023-04-07T07:22:42;100946.31;;;9.84;87.30
53506;BME280;39388;50.936;6.848;2023-04-07T07:25:12;100956.66;;;9.96;87.29
53506;BME280;39388;50.936;6.848;2023-04-07T07:27:42;100966.94;;;9.99;87.41
53506;BME280;39388;50.936;6.848;2023-04-07T07:30:13;100963.53;;;10.03;87.11
53506;BME280;39388;50.936;6.848;2023-04-07T07:32:43;100967.81;;;10.01;86.66
53506;BME280;39388;50.936;6.848;2023-04-07T07:35:14;100963.53;;;9.99;86.82
53506;BME280;39388;50.936;6.848;2023-04-07T07:37:45;100972.13;;;10.01;86.79
53506;BME280;39388;50.936;6.848;2023-04-07T07:40:17;100967.84;;;9.98;86.83
53506;BME280;39388;50.936;6.848;2023-04-07T07:42:47;100974.69;;;10.01;86.95
53506;BME280;39388;50.936;6.848;2023-04-07T07:45:18;100971.25;;;10.03;87.20
53506;BME280;39388;50.936;6.848;2023-04-07T07:47:49;100972.97;;;10.14;87.01
53506;BME280;39388;50.936;6.848;2023-04-07T07:50:19;100980.75;;;10.23;87.06
53506;BME280;39388;50.936;6.848;2023-04-07T07:52:50;100985.88;;;10.29;86.90
53506;BME280;39388;50.936;6.848;2023-04-07T07:55:20;100982.47;;;10.32;87.16
53506;BME280;39388;50.936;6.848;2023-04-07T07:57:51;100990.19;;;10.35;86.89
53506;BME280;39388;50.936;6.848;2023-04-07T08:00:21;100979.88;;;10.32;86.87
53506;BME280;39388;50.936;6.848;2023-04-07T08:02:53;100990.19;;;10.41;87.12
53506;BME280;39388;50.936;6.848;2023-04-07T08:05:23;100981.59;;;10.39;86.75
53506;BME280;39388;50.936;6.848;2023-04-07T08:07:54;100996.19;;;10.41;86.74
53506;BME280;39388;50.936;6.848;2023-04-07T08:10:24;101001.38;;;10.43;86.77
53506;BME280;39388;50.936;6.848;2023-04-07T08:12:55;100998.78;;;10.45;86.69
53506;BME280;39388;50.936;6.848;2023-04-07T08:15:25;101003.09;;;10.44;86.68
53506;BME280;39388;50.936;6.848;2023-04-07T08:17:56;100995.34;;;10.39;86.66
53506;BME280;39388;50.936;6.848;2023-04-07T08:20:26;101006.50;;;10.41;86.37
53506;BME280;39388;50.936;6.848;2023-04-07T08:22:58;101004.81;;;10.37;86.52
53506;BME280;39388;50.936;6.848;2023-04-07T08:25:28;101009.94;;;10.44;86.83
53506;BME280;39388;50.936;6.848;2023-04-07T08:27:59;101016.81;;;10.45;86.26
53506;BME280;39388;50.936;6.848;2023-04-07T08:30:29;101016.84;;;10.46;86.58
53506;BME280;39388;50.936;6.848;2023-04-07T08:32:59;101024.56;;;10.51;86.29
53506;BME280;39388;50.936;6.848;2023-04-07T08:35:30;101018.53;;;10.50;86.63
53506;BME280;39388;50.936;6.848;2023-04-07T08:38:00;101016.84;;;10.54;85.99
53506;BME280;39388;50.936;6.848;2023-04-07T08:40:32;101015.13;;;10.53;85.85
53506;BME280;39388;50.936;6.848;2023-04-07T08:43:07;101021.97;;;10.57;85.73
53506;BME280;39388;50.936;6.848;2023-04-07T08:45:39;101019.41;;;10.57;85.53
53506;BME280;39388;50.936;6.848;2023-04-07T08:48:15;101032.28;;;10.65;85.57
53506;BME280;39388;50.936;6.848;2023-04-07T08:50:48;101018.56;;;10.64;85.55
53506;BME280;39388;50.936;6.848;2023-04-07T08:53:28;101028.00;;;10.71;85.09
53506;BME280;39388;50.936;6.848;2023-04-07T08:56:04;101022.84;;;10.73;85.05
53506;BME280;39388;50.936;6.848;2023-04-07T08:58:35;101024.53;;;10.77;85.28
53506;BME280;39388;50.936;6.848;2023-04-07T09:01:08;101040.03;;;10.90;85.13
53506;BME280;39388;50.936;6.848;2023-04-07T09:03:38;101034.84;;;10.93;84.64
53506;BME280;39388;50.936;6.848;2023-04-07T09:06:09;101030.53;;;10.99;84.40
53506;BME280;39388;50.936;6.848;2023-04-07T09:08:43;101027.09;;;11.10;84.07
53506;BME280;39388;50.936;6.848;2023-04-07T09:11:13;101036.56;;;11.18;83.91
53506;BME280;39388;50.936;6.848;2023-04-07T09:13:43;101038.25;;;11.26;83.24
53506;BME280;39388;50.936;6.848;2023-04-07T09:16:14;101025.34;;;11.23;83.21
53506;BME280;39388;50.936;6.848;2023-04-07T09:18:44;101041.66;;;11.29;82.65
53506;BME280;39388;50.936;6.848;2023-04-07T09:21:15;101040.81;;;11.32;82.53
53506;BME280;39388;50.936;6.848;2023-04-07T09:23:46;101041.66;;;11.29;82.07
53506;BME280;39388;50.936;6.848;2023-04-07T09:28:56;101047.69;;;11.36;81.84
53506;BME280;39388;50.936;6.848;2023-04-07T09:36:57;101052.00;;;11.36;81.72
53506;BME280;39388;50.936;6.848;2023-04-07T09:39:30;101049.41;;;11.37;81.81
53506;BME280;39388;50.936;6.848;2023-04-07T09:42:05;101051.97;;;11.42;81.65
53506;BME280;39388;50.936;6.848;2023-04-07T09:44:38;101057.09;;;11.49;81.50
53506;BME280;39388;50.936;6.848;2023-04-07T09:47:10;101060.56;;;11.50;81.88
53506;BME280;39388;50.936;6.848;2023-04-07T09:49:52;101055.41;;;11.47;81.06
53506;BME280;39388;50.936;6.848;2023-04-07T09:52:50;101053.72;;;11.40;81.97
53506;BME280;39388;50.936;6.848;2023-04-07T09:55:23;101064.03;;;11.37;81.60
53506;BME280;39388;50.936;6.848;2023-04-07T09:57:54;101041.69;;;11.20;81.66
53506;BME280;39388;50.936;6.848;2023-04-07T10:00:25;101065.78;;;11.27;82.06
53506;BME280;39388;50.936;6.848;2023-04-07T10:02:56;101070.97;;;11.25;82.10
53506;BME280;39388;50.936;6.848;2023-04-07T10:05:27;101065.81;;;11.17;82.21
53506;BME280;39388;50.936;6.848;2023-04-07T10:07:59;101058.06;;;11.07;82.43
53506;BME280;39388;50.936;6.848;2023-04-07T10:10:30;101053.78;;;10.98;82.49
53506;BME280;39388;50.936;6.848;2023-04-07T10:13:03;101058.06;;;11.03;82.66
53506;BME280;39388;50.936;6.848;2023-04-07T10:15:35;101062.38;;;11.00;82.95
53506;BME280;39388;50.936;6.848;2023-04-07T10:18:06;101065.81;;;11.00;82.80
53506;BME280;39388;50.936;6.848;2023-04-07T10:20:40;101062.38;;;11.03;82.94
53506;BME280;39388;50.936;6.848;2023-04-07T10:23:25;101076.97;;;11.07;82.76
53506;BME280;39388;50.936;6.848;2023-04-07T10:25:58;101073.56;;;11.02;82.97
53506;BME280;39388;50.936;6.848;2023-04-07T10:28:29;101071.84;;;11.02;83.40
53506;BME280;39388;50.936;6.848;2023-04-07T10:31:01;101074.41;;;11.06;83.22
53506;BME280;39388;50.936;6.848;2023-04-07T10:33:46;101083.84;;;11.13;83.21
53506;BME280;39388;50.936;6.848;2023-04-07T10:36:17;101076.97;;;11.15;83.20
53506;BME280;39388;50.936;6.848;2023-04-07T10:41:41;101083.84;;;11.30;82.75
53506;BME280;39388;50.936;6.848;2023-04-07T10:47:12;101089.00;;;11.31;82.26
53506;BME280;39388;50.936;6.848;2023-04-07T10:50:19;101092.44;;;11.30;82.40
53506;BME280;39388;50.936;6.848;2023-04-07T10:53:06;101094.16;;;11.31;82.19
53506;BME280;39388;50.936;6.848;2023-04-07T10:55:43;101095.03;;;11.26;82.31
53506;BME280;39388;50.936;6.848;2023-04-07T11:03:39;101096.75;;;11.30;82.21
53506;BME280;39388;50.936;6.848;2023-04-07T11:06:11;101100.16;;;11.35;82.29
53506;BME280;39388;50.936;6.848;2023-04-07T11:08:46;101101.03;;;11.40;82.46
53506;BME280;39388;50.936;6.848;2023-04-07T11:11:34;101091.56;;;11.39;82.23
53506;BME280;39388;50.936;6.848;2023-04-07T11:14:06;101097.56;;;11.46;81.57
53506;BME280;39388;50.936;6.848;2023-04-07T11:16:39;101096.75;;;11.41;81.53
53506;BME280;39388;50.936;6.848;2023-04-07T11:19:10;101095.00;;;11.38;81.72
53506;BME280;39388;50.936;6.848;2023-04-07T11:21:40;101099.31;;;11.42;81.36
53506;BME280;39388;50.936;6.848;2023-04-07T11:24:31;101101.00;;;11.42;81.40
53506;BME280;39388;50.936;6.848;2023-04-07T11:27:02;101110.50;;;11.40;81.29
53506;BME280;39388;50.936;6.848;2023-04-07T11:29:33;101101.88;;;11.39;81.53
53506;BME280;39388;50.936;6.848;2023-04-07T11:32:04;101101.91;;;11.31;80.88
53506;BME280;39388;50.936;6.848;2023-04-07T11:34:35;101109.63;;;11.36;81.29
53506;BME280;39388;50.936;6.848;2023-04-07T11:37:24;101105.34;;;11.38;81.01
53506;BME280;39388;50.936;6.848;2023-04-07T11:39:58;101096.72;;;11.47;81.40
53506;BME280;39388;50.936;6.848;2023-04-07T11:42:38;101105.25;;;11.69;81.08
53506;BME280;39388;50.936;6.848;2023-04-07T11:45:17;101114.72;;;11.84;80.85
53506;BME280;39388;50.936;6.848;2023-04-07T11:47:48;101096.66;;;11.69;80.72
53506;BME280;39388;50.936;6.848;2023-04-07T11:50:39;101112.97;;;11.77;80.83
53506;BME280;39388;50.936;6.848;2023-04-07T11:53:10;101113.00;;;11.74;80.95
53506;BME280;39388;50.936;6.848;2023-04-07T11:55:41;101121.59;;;11.73;80.40
53506;BME280;39388;50.936;6.848;2023-04-07T11:58:11;101124.22;;;11.67;81.04
53506;BME280;39388;50.936;6.848;2023-04-07T12:00:58;101130.22;;;11.67;80.95
53506;BME280;39388;50.936;6.848;2023-04-07T12:03:36;101129.41;;;11.62;81.30
53506;BME280;39388;50.936;6.848;2023-04-07T12:06:06;101133.72;;;11.57;80.93
53506;BME280;39388;50.936;6.848;2023-04-07T12:08:40;101130.25;;;11.55;80.83
53506;BME280;39388;50.936;6.848;2023-04-07T12:11:11;101132.84;;;11.55;80.98
53506;BME280;39388;50.936;6.848;2023-04-07T12:13:41;101128.56;;;11.47;80.83
53506;BME280;39388;50.936;6.848;2023-04-07T12:16:11;101127.69;;;11.47;81.46
53506;BME280;39388;50.936;6.848;2023-04-07T12:18:42;101132.88;;;11.47;81.43
53506;BME280;39388;50.936;6.848;2023-04-07T12:21:12;101139.75;;;11.51;81.65
53506;BME280;39388;50.936;6.848;2023-04-07T12:23:43;101138.91;;;11.47;81.19
53506;BME280;39388;50.936;6.848;2023-04-07T12:26:14;101137.16;;;11.45;81.26
53506;BME280;39388;50.936;6.848;2023-04-07T12:28:44;101148.34;;;11.44;81.57
53506;BME280;39388;50.936;6.848;2023-04-07T12:31:14;101142.34;;;11.40;81.21
53506;BME280;39388;50.936;6.848;2023-04-07T12:33:45;101150.09;;;11.40;81.13
53506;BME280;39388;50.936;6.848;2023-04-07T12:36:15;101154.38;;;11.38;81.30
53506;BME280;39388;50.936;6.848;2023-04-07T12:38:46;101156.13;;;11.33;81.06
53506;BME280;39388;50.936;6.848;2023-04-07T12:41:16;101159.56;;;11.32;81.09
53506;BME280;39388;50.936;6.848;2023-04-07T12:43:46;101157.84;;;11.32;81.76
53506;BME280;39388;50.936;6.848;2023-04-07T12:46:18;101157.84;;;11.40;81.52
53506;BME280;39388;50.936;6.848;2023-04-07T12:48:48;101153.53;;;11.42;81.38
53506;BME280;39388;50.936;6.848;2023-04-07T12:51:18;101162.97;;;11.49;81.54
53506;BME280;39388;50.936;6.848;2023-04-07T12:53:49;101160.41;;;11.48;81.19
53506;BME280;39388;50.936;6.848;2023-04-07T12:56:19;101166.41;;;11.58;81.74
53506;BME280;39388;50.936;6.848;2023-04-07T12:58:51;101156.09;;;11.58;81.20
53506;BME280;39388;50.936;6.848;2023-04-07T13:01:22;101162.97;;;11.63;81.28
53506;BME280;39388;50.936;6.848;2023-04-07T13:03:53;101150.91;;;11.59;81.30
53506;BME280;39388;50.936;6.848;2023-04-07T13:06:23;101165.53;;;11.79;81.56
53506;BME280;39388;50.936;6.848;2023-04-07T13:08:53;101159.50;;;11.85;81.30
53506;BME280;39388;50.936;6.848;2023-04-07T13:11:24;101168.94;;;11.92;81.27
53506;BME280;39388;50.936;6.848;2023-04-07T13:13:54;101167.22;;;11.97;81.06
53506;BME280;39388;50.936;6.848;2023-04-07T13:16:25;101167.22;;;11.99;80.69
53506;BME280;39388;50.936;6.848;2023-04-07T13:18:55;101167.16;;;12.06;80.88
53506;BME280;39388;50.936;6.848;2023-04-07T13:21:26;101162.00;;;12.09;80.24
53506;BME280;39388;50.936;6.848;2023-04-07T13:23:56;101159.38;;;12.19;80.24
53506;BME280;39388;50.936;6.848;2023-04-07T13:26:27;101160.19;;;12.30;80.45
53506;BME280;39388;50.936;6.848;2023-04-07T13:28:58;101158.41;;;12.42;80.07
53506;BME280;39388;50.936;6.848;2023-04-07T13:31:28;101154.03;;;12.53;80.16
53506;BME280;39388;50.936;6.848;2023-04-07T13:33:59;101159.13;;;12.67;79.47
53506;BME280;39388;50.936;6.848;2023-04-07T13:36:29;101147.84;;;12.77;79.08
53506;BME280;39388;50.936;6.848;2023-04-07T13:39:00;101157.25;;;12.89;78.73
53506;BME280;39388;50.936;6.848;2023-04-07T13:41:31;101154.72;;;12.81;78.67